Impacts METAR Board
IDs:

KATL - Atlanta/Hartsfield-J, GA, US

Updated at: 0800 UTC 22 Jul 2018
Potential Impact None Slight Moderate High
Time 21/20Z 21/21Z 21/22Z 21/23Z 22/00Z 22/01Z 22/02Z 22/03Z 22/04Z 22/05Z 22/06Z 22/07Z 22/08Z
Temp87 89 86 84 80 78 76 73 73 72 72 71 71
Dewpt72 73 71 71 75 72 69 67 68 67 67 67 67
Altim29.84 29.85 29.81 29.81 29.81 29.83 29.83 29.83 29.85 29.85 29.84 29.83 29.81
VIS10 10 10 10 10 10 10 10 10 10 10 10 10
CIG-- -- 250 110 200 250 250 250 -- -- -- -- --
CoverFEWSCTBKNBKNBKNBKNBKNBKNSCTSCTFEWCLRCLR
FltCatVFRVFRVFRVFRVFRVFRVFRVFRVFRVFRVFRVFRVFR
WX-------TSRA------------------
WDir230280260230240240240270270280280270280
WSpd8 13 8 6 7 7 6 9 8 6 8 6 5
WGst-- -- -- -- -- 17 -- -- -- -- -- -- --
Raw hourly METARs
KATL 211952Z 23008KT 10SM FEW030 FEW070 FEW250 31/22 A2984 RMK AO2 SLP093 T03060222
KATL 212052Z 28013KT 10SM SCT036 SCT065 SCT250 32/23 A2985 RMK AO2 SLP095 T03170228 55010
KATL 212152Z 26008KT 10SM FEW036 FEW065 SCT200 BKN250 30/22 A2981 RMK AO2 LTG DSNT W SLP084 CB DSNT SW-W T03000217
KATL 212252Z 23006KT 10SM -TSRA SCT036CB SCT075 BKN110 BKN200 29/22 A2981 RMK AO2 LTG DSNT SW AND W SLP084 RAB46 TSB38 OCNL LTGICCGCA SW-NW TS SW-NW MOV E CBMAM SE MOV SE CB DSNT SW-W P0000 T02890217
KATL 212352Z 24007KT 10SM FEW026 FEW070 SCT120 BKN200 27/24 A2981 RMK AO2 LTG DSNT N-E SLP086 RAE18 TSE32 TS MOV E CB DSNT N-E & SW & NW P0010 60010 T02670239 10322 20267 56012
KATL 220052Z 24007G17KT 10SM FEW014 FEW028 FEW110 BKN250 26/22 A2983 RMK AO2 LTG DSNT NW-E SLP091 CB DSNT NW-NE-E & SW TCU DSNT SW & NW T02560222
KATL 220152Z 24006KT 10SM FEW026 FEW050 SCT120 BKN250 24/21 A2983 RMK AO2 SLP092 CB DSNT N-NE & SW-W T02440206
KATL 220252Z 27009KT 10SM FEW050 FEW120 SCT200 BKN250 23/19 A2983 RMK AO2 SLP093 OCNL LTGICCA DSNT SW CB DSNT SW TCU DSNT N T02280194 51007
KATL 220352Z 27008KT 10SM FEW050 FEW110 SCT200 SCT250 23/20 A2985 RMK AO2 SLP097 FRQ LTGICCA DSNT S CB DSNT S T02280200
KATL 220452Z 28006KT 10SM FEW048 FEW120 SCT200 SCT250 22/19 A2985 RMK AO2 SLP099 T02220194 403220200
KATL 220552Z 28008KT 10SM FEW120 FEW200 FEW250 22/19 A2984 RMK AO2 SLP093 T02220194 10272 20222 50001
KATL 220652Z 27006KT 10SM CLR 22/19 A2983 RMK AO2 SLP090 T02170194
KATL 220752Z 28005KT 10SM CLR 22/19 A2981 RMK AO2 SLP084 T02170194



Page loaded:  08:32 UTC  |   01:32 AM Pacific  |   02:32 AM Mountain  |   03:32 AM Central  |   04:32 AM Eastern

 

ADVISORIES

FORECASTS

FORECASTS

OBSERVATIONS

USER TOOLS

ABOUT US